メインページ
METAR-TAF:

METAR-TAF

空港 :

ムースニー, オンタリオ州, カナダ

緯度: 51-16N, 経度: 080-39W, 海抜: 10m

現時点の気象観測

当レポートは1時間3分前の10:00(UTC)に作成
西の風 5kt
気温 -27°C
湿度 75%
気圧 1024 hPa
視程: 14.5km
高度19000ftの雲は散在している

METAR: CYMO 231000Z AUTO 26005KT 9SM SCT190 M27/M30 A3023 RMK SLP240

時間: 06:03 (11:03 UTC)

予報

当レポートは2時間5分前の08:58(UTC)に作成
予報は23日の 08時(UTC)から 23日の 18時(UTC)まで有効
西の風 7kt
視程: 10km
高度1200ftの雲は散在している
23日の 08時(UTC)から 23日の 15時(UTC)まで一時的に
高度1200ftの曇り
23日の 1500時(UTC)から
西の風 8kt
視程: 10km
高度1500ftの千切れ雲あり
23日の 15時(UTC)から 23日の 18時(UTC)まで一時的に
高度1500ftの雲は散在している

TAF: CYMO 230858Z 2308/2318 27007KT P6SM SCT012 TEMPO 2308/2315 OVC012 FM231500 28008KT P6SM BKN015 TEMPO 2315/2318 SCT015 RMK FCST BASED ON AUTO OBS. NXT FCST BY 231200Z

4,000以上の空港の気象観測と天気予報(METAR報とTAF報)

利用可能な観測所は地図上に黄色い丸と赤い丸で示す。

丸の上にカーソルを重ねると観測所名を参照できる。

次にクリックすると気象観測と天気予報を参照できる。

マップの切り替え:黒色「×」印の緑ボタンをクリックして拡大、「-」印の緑ボタンをクリックして縮小、緑色の三角印をクリックして隣りの地図に切り替え


METAR-TAF: